createdAt,value
2023-03-24T00:02:48.971Z,3.25
2023-03-24T00:17:50.668Z,2.33
2023-03-24T00:32:52.418Z,2.97
2023-03-24T00:47:54.487Z,2.50
2023-03-24T01:02:56.504Z,3.00
2023-03-24T01:17:58.349Z,2.90
2023-03-24T01:32:59.930Z,2.53
2023-03-24T01:48:01.818Z,2.30
2023-03-24T02:03:03.479Z,2.25
2023-03-24T02:18:11.341Z,2.60
2023-03-24T02:33:14.052Z,2.00
2023-03-24T02:48:15.823Z,2.28
2023-03-24T03:03:17.411Z,2.00
2023-03-24T03:18:21.148Z,2.10
2023-03-24T03:33:25.252Z,2.20
2023-03-24T03:48:27.105Z,2.10
2023-03-24T04:03:30.267Z,1.88
2023-03-24T04:18:32.204Z,1.90
2023-03-24T04:33:39.111Z,2.13
2023-03-24T04:48:41.581Z,1.80
2023-03-24T05:03:47.770Z,1.90
2023-03-24T05:18:50.492Z,1.90
2023-03-24T05:33:52.489Z,1.90
2023-03-24T05:48:56.320Z,1.80
2023-03-24T06:04:04.542Z,2.67
2023-03-24T06:19:06.761Z,2.55
2023-03-24T06:34:29.438Z,2.40
2023-03-24T06:49:48.354Z,2.55
2023-03-24T07:04:50.390Z,2.88
2023-03-24T07:20:11.344Z,3.22
2023-03-24T07:35:12.936Z,3.17
2023-03-24T07:50:14.645Z,3.90
2023-03-24T08:05:19.470Z,3.30
2023-03-24T08:20:37.746Z,3.60
2023-03-24T08:35:39.818Z,3.08
2023-03-24T08:50:41.763Z,3.10
2023-03-24T09:05:44.913Z,2.85
2023-03-24T09:20:46.841Z,3.67
2023-03-24T09:35:48.408Z,3.00
2023-03-24T09:50:50.363Z,3.53
2023-03-24T10:05:51.759Z,3.20
2023-03-24T10:20:53.714Z,2.90
2023-03-24T10:35:55.218Z,2.50
2023-03-24T10:50:57.466Z,2.13
2023-03-24T11:05:59.150Z,2.28
2023-03-24T11:21:06.995Z,2.00
2023-03-24T11:36:08.763Z,1.50
2023-03-24T11:51:12.607Z,1.35
2023-03-24T12:06:14.088Z,1.08
2023-03-24T12:21:16.582Z,1.00
2023-03-24T12:36:18.097Z,1.23
2023-03-24T12:51:19.533Z,1.30
2023-03-24T13:06:20.996Z,0.90
2023-03-24T13:21:23.470Z,1.25
2023-03-24T13:36:24.928Z,0.93
2023-03-24T13:51:26.655Z,1.10
2023-03-24T14:06:28.057Z,1.30
2023-03-24T14:21:29.539Z,1.25
2023-03-24T14:36:31.088Z,1.00
2023-03-24T14:51:36.634Z,1.20
2023-03-24T15:06:38.458Z,1.70
2023-03-24T15:21:39.864Z,1.60
2023-03-24T15:36:44.991Z,1.75
2023-03-24T15:51:46.548Z,1.60
2023-03-24T16:06:48.416Z,1.10
2023-03-24T16:21:49.791Z,1.20
2023-03-24T16:36:51.221Z,1.25
2023-03-24T16:51:53.724Z,1.30
2023-03-24T17:23:04.561Z,1.20
2023-03-24T17:38:07.029Z,1.20
2023-03-24T17:53:08.448Z,2.25
2023-03-24T18:08:09.906Z,1.60
2023-03-24T18:23:11.367Z,1.65
2023-03-24T18:38:15.113Z,1.52
2023-03-24T18:53:16.490Z,1.83
2023-03-24T19:08:18.201Z,1.95
2023-03-24T19:23:19.587Z,1.80
2023-03-24T19:38:23.742Z,1.75
2023-03-24T19:53:25.846Z,1.98
2023-03-24T20:08:27.355Z,2.00
2023-03-24T20:23:28.727Z,1.67
2023-03-24T20:38:30.843Z,1.50
2023-03-24T20:53:36.060Z,1.70
2023-03-24T21:08:38.056Z,1.70
2023-03-24T21:23:39.500Z,1.70
2023-03-24T21:38:40.876Z,2.05
2023-03-24T21:53:42.625Z,1.50
2023-03-24T22:08:44.356Z,1.80
2023-03-24T22:23:45.969Z,1.48
2023-03-24T22:38:47.406Z,1.88
2023-03-24T22:53:48.782Z,1.50
2023-03-24T23:08:50.217Z,1.80
2023-03-24T23:23:52.664Z,1.70
2023-03-24T23:38:54.691Z,1.30
2023-03-24T23:53:56.297Z,1.80
